createdAt,value
2023-04-17T00:09:51.014Z,5.79
2023-04-17T00:19:57.985Z,5.84
2023-04-17T00:30:05.264Z,5.79
2023-04-17T00:40:14.060Z,5.65
2023-04-17T00:50:19.937Z,5.46
2023-04-17T01:00:25.715Z,5.12
2023-04-17T01:10:32.856Z,4.96
2023-04-17T01:31:21.857Z,4.88
2023-04-17T01:41:29.796Z,4.85
2023-04-17T01:51:37.347Z,4.70
2023-04-17T02:01:44.447Z,4.61
2023-04-17T02:11:51.675Z,4.53
2023-04-17T02:21:58.652Z,4.54
2023-04-17T02:32:05.627Z,4.58
2023-04-17T02:42:12.800Z,4.69
2023-04-17T02:52:19.841Z,4.82
2023-04-17T03:02:27.754Z,5.05
2023-04-17T03:12:35.273Z,5.27
2023-04-17T03:22:42.582Z,5.48
2023-04-17T03:32:49.956Z,5.56
2023-04-17T03:42:56.127Z,5.71
2023-04-17T03:53:03.215Z,5.79
2023-04-17T04:03:10.324Z,5.82
2023-04-17T04:13:17.919Z,5.81
2023-04-17T04:23:25.186Z,5.72
2023-04-17T04:33:33.318Z,5.70
2023-04-17T04:43:40.672Z,5.71
2023-04-17T04:53:47.778Z,5.70
2023-04-17T05:03:55.136Z,5.84
2023-04-17T05:14:02.315Z,6.12
2023-04-17T05:24:07.363Z,6.24
2023-04-17T05:34:14.426Z,6.26
2023-04-17T05:44:21.489Z,6.33
2023-04-17T05:54:27.007Z,6.48
2023-04-17T06:04:34.586Z,6.59
2023-04-17T06:14:42.470Z,6.73
2023-04-17T06:24:49.759Z,6.79
2023-04-17T06:34:59.579Z,6.88
2023-04-17T06:45:07.270Z,7.10
2023-04-17T06:55:15.045Z,7.32
2023-04-17T07:05:22.232Z,7.49
2023-04-17T07:15:31.054Z,7.72
2023-04-17T07:25:37.130Z,7.90
2023-04-17T07:35:45.973Z,8.05
2023-04-17T07:45:53.789Z,8.18
2023-04-17T07:56:00.608Z,8.31
2023-04-17T08:06:08.723Z,8.52
2023-04-17T08:16:15.962Z,8.77
2023-04-17T08:26:23.335Z,8.88
2023-04-17T08:36:31.422Z,9.14
2023-04-17T08:46:41.054Z,9.25
2023-04-17T08:56:48.567Z,9.27
2023-04-17T09:06:54.754Z,9.86
2023-04-17T09:17:01.824Z,9.91
2023-04-17T09:27:20.535Z,9.97
2023-04-17T09:37:30.208Z,10.23
2023-04-17T09:47:37.945Z,10.61
2023-04-17T09:57:45.962Z,10.90
2023-04-17T10:07:53.279Z,11.02
2023-04-17T10:18:21.992Z,11.20
2023-04-17T10:28:47.782Z,11.58
2023-04-17T10:39:03.972Z,11.88
2023-04-17T10:49:12.245Z,12.22
2023-04-17T10:59:21.835Z,12.51
2023-04-17T11:09:29.789Z,12.79
2023-04-17T11:19:37.118Z,12.93
2023-04-17T11:29:45.874Z,13.39
2023-04-17T11:39:53.055Z,13.50
2023-04-17T11:50:00.424Z,13.48
2023-04-17T12:00:16.743Z,13.44
2023-04-17T12:10:24.811Z,13.29
2023-04-17T12:20:32.119Z,13.37
2023-04-17T12:30:40.020Z,13.36
2023-04-17T12:40:47.041Z,13.23
2023-04-17T12:50:54.730Z,13.27
2023-04-17T13:01:02.053Z,13.15
2023-04-17T13:11:09.400Z,13.19
2023-04-17T13:21:16.763Z,13.15
2023-04-17T13:31:23.786Z,13.11
2023-04-17T13:41:30.935Z,13.37
2023-04-17T13:51:37.059Z,13.29
2023-04-17T14:01:44.212Z,13.01
2023-04-17T14:11:51.613Z,12.75
2023-04-17T14:21:58.990Z,12.56
2023-04-17T14:32:06.670Z,12.76
2023-04-17T14:42:13.976Z,12.75
2023-04-17T14:52:21.608Z,12.61
2023-04-17T15:02:28.805Z,12.40
2023-04-17T15:12:36.847Z,12.35
2023-04-17T15:22:44.226Z,12.35
2023-04-17T15:32:51.528Z,12.28
2023-04-17T15:42:59.411Z,12.23
2023-04-17T15:53:08.913Z,12.15
2023-04-17T16:03:16.410Z,12.00
2023-04-17T16:13:23.776Z,11.90
2023-04-17T16:23:31.050Z,11.79
2023-04-17T16:33:39.920Z,11.65
2023-04-17T16:43:47.362Z,11.56
2023-04-17T16:53:54.707Z,11.43
2023-04-17T17:04:01.801Z,11.26
2023-04-17T17:14:09.033Z,11.01
2023-04-17T17:24:16.288Z,10.91
2023-04-17T17:34:26.496Z,10.87
2023-04-17T17:54:42.175Z,10.62
2023-04-17T18:04:49.621Z,10.48
2023-04-17T18:14:56.870Z,10.32
2023-04-17T18:25:02.666Z,10.16
2023-04-17T18:35:11.069Z,9.99
2023-04-17T18:45:18.239Z,9.89
2023-04-17T18:55:24.288Z,9.79
2023-04-17T19:05:31.410Z,9.65
2023-04-17T19:15:39.531Z,9.46
2023-04-17T19:25:52.526Z,9.32
2023-04-17T19:36:01.006Z,9.20
2023-04-17T19:46:08.835Z,9.12
2023-04-17T19:56:16.399Z,9.13
2023-04-17T20:06:23.429Z,9.12
2023-04-17T20:16:30.972Z,9.09
2023-04-17T20:26:38.154Z,9.08
2023-04-17T20:36:45.699Z,9.05
2023-04-17T20:46:52.740Z,9.01
2023-04-17T20:57:00.037Z,8.95
2023-04-17T21:07:06.975Z,8.90
2023-04-17T21:17:14.494Z,8.88
2023-04-17T21:27:21.656Z,8.87
2023-04-17T21:37:29.020Z,8.84
2023-04-17T22:07:53.680Z,8.62
2023-04-17T22:18:02.500Z,8.59
2023-04-17T22:28:08.963Z,8.61
2023-04-17T22:38:15.911Z,8.63
2023-04-17T22:48:24.520Z,8.63
2023-04-17T22:58:32.654Z,8.62
2023-04-17T23:08:40.229Z,8.56
2023-04-17T23:18:47.143Z,8.48
2023-04-17T23:28:54.453Z,8.45
2023-04-17T23:39:01.924Z,8.45
2023-04-17T23:49:10.076Z,8.42
2023-04-17T23:59:16.507Z,8.40
